sensor_id;sensor_type;location;lat;lon;timestamp;P1;durP1;ratioP1;P2;durP2;ratioP2
62584;SDS011;48643;51.670;5.808;2023-11-19T00:00:18;4.75;;;3.70;;
62584;SDS011;48643;51.670;5.808;2023-11-19T00:02:44;6.20;;;3.58;;
62584;SDS011;48643;51.670;5.808;2023-11-19T00:05:12;5.03;;;3.38;;
62584;SDS011;48643;51.670;5.808;2023-11-19T00:07:39;5.88;;;3.58;;
62584;SDS011;48643;51.670;5.808;2023-11-19T00:10:11;5.53;;;3.03;;
62584;SDS011;48643;51.670;5.808;2023-11-19T00:12:43;4.30;;;3.50;;
62584;SDS011;48643;51.670;5.808;2023-11-19T00:15:11;4.90;;;3.60;;
62584;SDS011;48643;51.670;5.808;2023-11-19T00:17:42;5.18;;;3.50;;
62584;SDS011;48643;51.670;5.808;2023-11-19T00:20:12;5.47;;;3.22;;
62584;SDS011;48643;51.670;5.808;2023-11-19T00:22:41;5.20;;;3.70;;
62584;SDS011;48643;51.670;5.808;2023-11-19T00:25:12;5.03;;;3.40;;
62584;SDS011;48643;51.670;5.808;2023-11-19T00:27:39;5.20;;;3.50;;
62584;SDS011;48643;51.670;5.808;2023-11-19T00:30:06;5.38;;;3.40;;
62584;SDS011;48643;51.670;5.808;2023-11-19T00:32:35;4.60;;;3.60;;
62584;SDS011;48643;51.670;5.808;2023-11-19T00:35:05;7.30;;;3.88;;
62584;SDS011;48643;51.670;5.808;2023-11-19T00:37:32;6.82;;;4.22;;
62584;SDS011;48643;51.670;5.808;2023-11-19T00:39:59;4.43;;;3.53;;
62584;SDS011;48643;51.670;5.808;2023-11-19T00:42:26;3.97;;;3.30;;
62584;SDS011;48643;51.670;5.808;2023-11-19T00:44:53;5.63;;;3.70;;
62584;SDS011;48643;51.670;5.808;2023-11-19T00:47:21;5.88;;;3.88;;
62584;SDS011;48643;51.670;5.808;2023-11-19T00:49:48;5.30;;;3.88;;
62584;SDS011;48643;51.670;5.808;2023-11-19T00:52:16;6.78;;;3.90;;
62584;SDS011;48643;51.670;5.808;2023-11-19T00:54:43;8.70;;;4.20;;
62584;SDS011;48643;51.670;5.808;2023-11-19T00:57:10;8.38;;;4.10;;
62584;SDS011;48643;51.670;5.808;2023-11-19T00:59:37;6.82;;;4.28;;
62584;SDS011;48643;51.670;5.808;2023-11-19T01:02:05;7.55;;;4.35;;
62584;SDS011;48643;51.670;5.808;2023-11-19T01:04:33;8.30;;;3.70;;
62584;SDS011;48643;51.670;5.808;2023-11-19T01:07:01;6.90;;;3.70;;
62584;SDS011;48643;51.670;5.808;2023-11-19T01:09:34;6.05;;;3.92;;
62584;SDS011;48643;51.670;5.808;2023-11-19T01:12:02;9.88;;;4.53;;
62584;SDS011;48643;51.670;5.808;2023-11-19T01:14:29;8.75;;;4.45;;
62584;SDS011;48643;51.670;5.808;2023-11-19T01:16:56;9.05;;;4.20;;
62584;SDS011;48643;51.670;5.808;2023-11-19T01:19:24;8.05;;;4.50;;
62584;SDS011;48643;51.670;5.808;2023-11-19T01:21:51;9.38;;;4.10;;
62584;SDS011;48643;51.670;5.808;2023-11-19T01:24:18;9.02;;;4.45;;
62584;SDS011;48643;51.670;5.808;2023-11-19T01:26:45;11.60;;;4.55;;
62584;SDS011;48643;51.670;5.808;2023-11-19T01:29:13;8.55;;;3.40;;
62584;SDS011;48643;51.670;5.808;2023-11-19T01:31:41;8.40;;;4.28;;
62584;SDS011;48643;51.670;5.808;2023-11-19T01:34:08;6.63;;;3.88;;
62584;SDS011;48643;51.670;5.808;2023-11-19T01:36:36;10.90;;;4.10;;
62584;SDS011;48643;51.670;5.808;2023-11-19T01:39:03;7.45;;;3.85;;
62584;SDS011;48643;51.670;5.808;2023-11-19T01:41:36;10.48;;;4.35;;
62584;SDS011;48643;51.670;5.808;2023-11-19T01:44:03;9.35;;;4.05;;
62584;SDS011;48643;51.670;5.808;2023-11-19T01:46:30;12.88;;;4.25;;
62584;SDS011;48643;51.670;5.808;2023-11-19T01:49:00;11.55;;;4.25;;
62584;SDS011;48643;51.670;5.808;2023-11-19T01:51:28;7.40;;;3.92;;
62584;SDS011;48643;51.670;5.808;2023-11-19T01:53:55;10.23;;;3.90;;
62584;SDS011;48643;51.670;5.808;2023-11-19T01:56:24;16.25;;;4.38;;
62584;SDS011;48643;51.670;5.808;2023-11-19T01:58:53;9.50;;;3.85;;
62584;SDS011;48643;51.670;5.808;2023-11-19T02:01:21;10.07;;;4.00;;
62584;SDS011;48643;51.670;5.808;2023-11-19T02:03:48;10.50;;;4.00;;
62584;SDS011;48643;51.670;5.808;2023-11-19T02:06:15;10.73;;;3.80;;
62584;SDS011;48643;51.670;5.808;2023-11-19T02:08:42;8.68;;;3.83;;
62584;SDS011;48643;51.670;5.808;2023-11-19T02:11:12;8.45;;;3.50;;
62584;SDS011;48643;51.670;5.808;2023-11-19T02:13:40;10.00;;;3.63;;
62584;SDS011;48643;51.670;5.808;2023-11-19T02:16:08;12.07;;;3.63;;
62584;SDS011;48643;51.670;5.808;2023-11-19T02:18:36;11.73;;;3.67;;
62584;SDS011;48643;51.670;5.808;2023-11-19T02:21:04;13.32;;;3.55;;
62584;SDS011;48643;51.670;5.808;2023-11-19T02:23:31;14.40;;;4.10;;
62584;SDS011;48643;51.670;5.808;2023-11-19T02:28:41;12.65;;;3.50;;
62584;SDS011;48643;51.670;5.808;2023-11-19T02:31:10;12.27;;;3.80;;
62584;SDS011;48643;51.670;5.808;2023-11-19T02:33:38;14.32;;;3.60;;
62584;SDS011;48643;51.670;5.808;2023-11-19T02:36:06;14.13;;;3.85;;
62584;SDS011;48643;51.670;5.808;2023-11-19T02:38:34;12.95;;;4.13;;
62584;SDS011;48643;51.670;5.808;2023-11-19T02:41:05;14.27;;;3.88;;
62584;SDS011;48643;51.670;5.808;2023-11-19T02:43:33;13.90;;;3.95;;
62584;SDS011;48643;51.670;5.808;2023-11-19T02:46:01;8.35;;;3.67;;
62584;SDS011;48643;51.670;5.808;2023-11-19T02:48:41;15.60;;;4.07;;
62584;SDS011;48643;51.670;5.808;2023-11-19T02:51:09;10.65;;;3.70;;
62584;SDS011;48643;51.670;5.808;2023-11-19T02:53:37;14.77;;;3.47;;
62584;SDS011;48643;51.670;5.808;2023-11-19T02:56:05;12.32;;;3.75;;
62584;SDS011;48643;51.670;5.808;2023-11-19T02:58:38;9.98;;;3.60;;
62584;SDS011;48643;51.670;5.808;2023-11-19T03:01:05;14.80;;;3.70;;
62584;SDS011;48643;51.670;5.808;2023-11-19T03:03:39;22.20;;;4.45;;
62584;SDS011;48643;51.670;5.808;2023-11-19T03:06:07;11.60;;;3.67;;
62584;SDS011;48643;51.670;5.808;2023-11-19T03:08:35;15.98;;;3.58;;
62584;SDS011;48643;51.670;5.808;2023-11-19T03:11:02;13.77;;;3.75;;
62584;SDS011;48643;51.670;5.808;2023-11-19T03:13:31;21.42;;;4.15;;
62584;SDS011;48643;51.670;5.808;2023-11-19T03:15:58;18.00;;;4.18;;
62584;SDS011;48643;51.670;5.808;2023-11-19T03:18:25;11.48;;;3.70;;
62584;SDS011;48643;51.670;5.808;2023-11-19T03:20:51;22.80;;;3.85;;
62584;SDS011;48643;51.670;5.808;2023-11-19T03:23:18;20.92;;;3.95;;
62584;SDS011;48643;51.670;5.808;2023-11-19T03:25:45;15.70;;;3.95;;
62584;SDS011;48643;51.670;5.808;2023-11-19T03:28:12;15.85;;;3.90;;
62584;SDS011;48643;51.670;5.808;2023-11-19T03:30:39;13.68;;;3.90;;
62584;SDS011;48643;51.670;5.808;2023-11-19T03:33:07;19.15;;;3.90;;
62584;SDS011;48643;51.670;5.808;2023-11-19T03:35:34;13.02;;;3.58;;
62584;SDS011;48643;51.670;5.808;2023-11-19T03:38:01;14.73;;;3.67;;
62584;SDS011;48643;51.670;5.808;2023-11-19T03:40:28;22.10;;;4.18;;
62584;SDS011;48643;51.670;5.808;2023-11-19T03:42:56;19.80;;;4.47;;
62584;SDS011;48643;51.670;5.808;2023-11-19T03:45:26;20.63;;;4.22;;
62584;SDS011;48643;51.670;5.808;2023-11-19T03:47:53;22.17;;;4.40;;
62584;SDS011;48643;51.670;5.808;2023-11-19T03:50:20;21.95;;;4.13;;
62584;SDS011;48643;51.670;5.808;2023-11-19T03:52:47;17.67;;;4.05;;
62584;SDS011;48643;51.670;5.808;2023-11-19T03:55:15;18.60;;;3.90;;
62584;SDS011;48643;51.670;5.808;2023-11-19T03:57:42;21.75;;;4.00;;
62584;SDS011;48643;51.670;5.808;2023-11-19T04:00:10;25.98;;;4.28;;
62584;SDS011;48643;51.670;5.808;2023-11-19T04:05:07;21.58;;;3.78;;
62584;SDS011;48643;51.670;5.808;2023-11-19T04:07:34;20.92;;;3.90;;
62584;SDS011;48643;51.670;5.808;2023-11-19T04:10:01;23.55;;;3.95;;
62584;SDS011;48643;51.670;5.808;2023-11-19T04:12:29;21.48;;;4.13;;
62584;SDS011;48643;51.670;5.808;2023-11-19T04:14:56;22.83;;;3.95;;
62584;SDS011;48643;51.670;5.808;2023-11-19T04:17:27;23.40;;;4.05;;
62584;SDS011;48643;51.670;5.808;2023-11-19T04:19:54;23.45;;;4.00;;
62584;SDS011;48643;51.670;5.808;2023-11-19T04:22:22;22.13;;;3.83;;
62584;SDS011;48643;51.670;5.808;2023-11-19T04:24:50;27.38;;;4.82;;
62584;SDS011;48643;51.670;5.808;2023-11-19T04:27:17;25.77;;;4.18;;
62584;SDS011;48643;51.670;5.808;2023-11-19T04:29:44;27.70;;;4.07;;
62584;SDS011;48643;51.670;5.808;2023-11-19T04:32:14;23.75;;;3.92;;
62584;SDS011;48643;51.670;5.808;2023-11-19T04:34:41;19.27;;;3.90;;
62584;SDS011;48643;51.670;5.808;2023-11-19T04:37:07;27.30;;;4.00;;
62584;SDS011;48643;51.670;5.808;2023-11-19T04:39:38;19.02;;;3.90;;
62584;SDS011;48643;51.670;5.808;2023-11-19T04:42:05;26.08;;;4.22;;
62584;SDS011;48643;51.670;5.808;2023-11-19T04:44:33;21.17;;;4.07;;
62584;SDS011;48643;51.670;5.808;2023-11-19T04:47:00;26.77;;;4.13;;
62584;SDS011;48643;51.670;5.808;2023-11-19T04:49:27;32.13;;;4.50;;
62584;SDS011;48643;51.670;5.808;2023-11-19T04:51:54;30.02;;;5.40;;
62584;SDS011;48643;51.670;5.808;2023-11-19T04:54:21;26.70;;;4.55;;
62584;SDS011;48643;51.670;5.808;2023-11-19T04:56:48;27.38;;;4.15;;
62584;SDS011;48643;51.670;5.808;2023-11-19T04:59:15;23.52;;;4.45;;
62584;SDS011;48643;51.670;5.808;2023-11-19T05:01:46;26.23;;;4.50;;
62584;SDS011;48643;51.670;5.808;2023-11-19T05:04:13;28.92;;;4.40;;
62584;SDS011;48643;51.670;5.808;2023-11-19T05:06:41;26.70;;;4.07;;
62584;SDS011;48643;51.670;5.808;2023-11-19T05:09:07;21.95;;;3.97;;
62584;SDS011;48643;51.670;5.808;2023-11-19T05:11:35;25.70;;;4.07;;
62584;SDS011;48643;51.670;5.808;2023-11-19T05:14:16;22.90;;;3.95;;
62584;SDS011;48643;51.670;5.808;2023-11-19T05:16:44;20.48;;;4.07;;
62584;SDS011;48643;51.670;5.808;2023-11-19T05:19:11;23.00;;;3.63;;
62584;SDS011;48643;51.670;5.808;2023-11-19T05:21:38;28.98;;;4.78;;
62584;SDS011;48643;51.670;5.808;2023-11-19T05:24:09;25.90;;;4.13;;
62584;SDS011;48643;51.670;5.808;2023-11-19T05:26:38;27.17;;;4.25;;
62584;SDS011;48643;51.670;5.808;2023-11-19T05:29:04;30.02;;;4.72;;
62584;SDS011;48643;51.670;5.808;2023-11-19T05:31:31;28.17;;;4.28;;
62584;SDS011;48643;51.670;5.808;2023-11-19T05:34:02;22.15;;;4.28;;
62584;SDS011;48643;51.670;5.808;2023-11-19T05:36:29;27.02;;;4.90;;
62584;SDS011;48643;51.670;5.808;2023-11-19T05:38:56;26.40;;;4.47;;
62584;SDS011;48643;51.670;5.808;2023-11-19T05:41:23;26.27;;;4.43;;
62584;SDS011;48643;51.670;5.808;2023-11-19T05:43:50;26.15;;;4.18;;
62584;SDS011;48643;51.670;5.808;2023-11-19T05:46:17;31.90;;;4.53;;
62584;SDS011;48643;51.670;5.808;2023-11-19T05:48:46;26.25;;;4.28;;
62584;SDS011;48643;51.670;5.808;2023-11-19T05:51:13;32.42;;;5.20;;
62584;SDS011;48643;51.670;5.808;2023-11-19T05:53:44;29.48;;;4.15;;
62584;SDS011;48643;51.670;5.808;2023-11-19T05:56:16;25.27;;;4.28;;
62584;SDS011;48643;51.670;5.808;2023-11-19T05:58:47;22.67;;;3.90;;
62584;SDS011;48643;51.670;5.808;2023-11-19T06:01:15;31.27;;;4.93;;
62584;SDS011;48643;51.670;5.808;2023-11-19T06:03:43;20.60;;;3.63;;
62584;SDS011;48643;51.670;5.808;2023-11-19T06:06:10;22.52;;;3.80;;
62584;SDS011;48643;51.670;5.808;2023-11-19T06:08:38;30.48;;;4.53;;
62584;SDS011;48643;51.670;5.808;2023-11-19T06:11:05;24.15;;;4.20;;
62584;SDS011;48643;51.670;5.808;2023-11-19T06:13:32;26.05;;;4.72;;
62584;SDS011;48643;51.670;5.808;2023-11-19T06:15:59;38.20;;;4.80;;
62584;SDS011;48643;51.670;5.808;2023-11-19T06:18:26;24.45;;;4.07;;
62584;SDS011;48643;51.670;5.808;2023-11-19T06:20:54;24.58;;;4.45;;
62584;SDS011;48643;51.670;5.808;2023-11-19T06:23:20;21.33;;;4.15;;
62584;SDS011;48643;51.670;5.808;2023-11-19T06:25:47;30.20;;;4.40;;
62584;SDS011;48643;51.670;5.808;2023-11-19T06:28:14;31.10;;;4.55;;
62584;SDS011;48643;51.670;5.808;2023-11-19T06:30:41;22.05;;;3.60;;
62584;SDS011;48643;51.670;5.808;2023-11-19T06:33:12;34.60;;;4.28;;
62584;SDS011;48643;51.670;5.808;2023-11-19T06:35:39;25.58;;;4.38;;
62584;SDS011;48643;51.670;5.808;2023-11-19T06:38:06;23.92;;;4.05;;
62584;SDS011;48643;51.670;5.808;2023-11-19T06:40:33;30.52;;;4.10;;
62584;SDS011;48643;51.670;5.808;2023-11-19T06:43:03;29.88;;;4.43;;
62584;SDS011;48643;51.670;5.808;2023-11-19T06:45:31;30.85;;;4.93;;
62584;SDS011;48643;51.670;5.808;2023-11-19T06:48:00;29.10;;;4.10;;
62584;SDS011;48643;51.670;5.808;2023-11-19T06:50:30;24.13;;;3.92;;
62584;SDS011;48643;51.670;5.808;2023-11-19T06:52:57;20.13;;;3.80;;
62584;SDS011;48643;51.670;5.808;2023-11-19T06:55:24;30.20;;;4.22;;
62584;SDS011;48643;51.670;5.808;2023-11-19T06:57:52;27.48;;;4.50;;
62584;SDS011;48643;51.670;5.808;2023-11-19T07:00:19;26.95;;;4.22;;
62584;SDS011;48643;51.670;5.808;2023-11-19T07:02:46;33.42;;;4.85;;
62584;SDS011;48643;51.670;5.808;2023-11-19T07:05:13;28.80;;;4.38;;
62584;SDS011;48643;51.670;5.808;2023-11-19T07:07:40;28.65;;;4.22;;
62584;SDS011;48643;51.670;5.808;2023-11-19T07:10:07;25.10;;;4.40;;
62584;SDS011;48643;51.670;5.808;2023-11-19T07:12:36;28.15;;;4.15;;
62584;SDS011;48643;51.670;5.808;2023-11-19T07:15:03;26.23;;;4.35;;
62584;SDS011;48643;51.670;5.808;2023-11-19T07:17:30;26.48;;;4.50;;
62584;SDS011;48643;51.670;5.808;2023-11-19T07:19:57;22.08;;;3.67;;
62584;SDS011;48643;51.670;5.808;2023-11-19T07:22:26;27.02;;;3.95;;
62584;SDS011;48643;51.670;5.808;2023-11-19T07:24:56;30.55;;;4.38;;
62584;SDS011;48643;51.670;5.808;2023-11-19T07:27:23;29.10;;;4.50;;
62584;SDS011;48643;51.670;5.808;2023-11-19T07:29:51;22.60;;;4.28;;
62584;SDS011;48643;51.670;5.808;2023-11-19T07:32:18;34.72;;;5.18;;
62584;SDS011;48643;51.670;5.808;2023-11-19T07:34:45;35.67;;;5.13;;
62584;SDS011;48643;51.670;5.808;2023-11-19T07:37:12;26.75;;;4.60;;
62584;SDS011;48643;51.670;5.808;2023-11-19T07:39:39;35.75;;;5.47;;
62584;SDS011;48643;51.670;5.808;2023-11-19T07:42:07;30.70;;;4.47;;
62584;SDS011;48643;51.670;5.808;2023-11-19T07:44:36;33.38;;;4.50;;
62584;SDS011;48643;51.670;5.808;2023-11-19T07:47:03;25.10;;;4.80;;
62584;SDS011;48643;51.670;5.808;2023-11-19T07:49:30;28.30;;;4.45;;
62584;SDS011;48643;51.670;5.808;2023-11-19T07:51:57;28.85;;;4.50;;
62584;SDS011;48643;51.670;5.808;2023-11-19T07:54:24;34.20;;;4.60;;
62584;SDS011;48643;51.670;5.808;2023-11-19T07:56:51;31.33;;;4.43;;
62584;SDS011;48643;51.670;5.808;2023-11-19T07:59:18;31.35;;;4.28;;
62584;SDS011;48643;51.670;5.808;2023-11-19T08:01:45;34.30;;;4.72;;
62584;SDS011;48643;51.670;5.808;2023-11-19T08:04:12;37.30;;;5.18;;
62584;SDS011;48643;51.670;5.808;2023-11-19T08:06:39;32.95;;;4.78;;
62584;SDS011;48643;51.670;5.808;2023-11-19T08:09:06;29.08;;;4.25;;
62584;SDS011;48643;51.670;5.808;2023-11-19T08:11:40;39.22;;;4.80;;
62584;SDS011;48643;51.670;5.808;2023-11-19T08:14:08;36.65;;;4.85;;
62584;SDS011;48643;51.670;5.808;2023-11-19T08:16:35;41.00;;;4.75;;
62584;SDS011;48643;51.670;5.808;2023-11-19T08:19:03;37.30;;;4.87;;
62584;SDS011;48643;51.670;5.808;2023-11-19T08:21:30;36.15;;;4.90;;
62584;SDS011;48643;51.670;5.808;2023-11-19T08:23:57;34.28;;;4.78;;
62584;SDS011;48643;51.670;5.808;2023-11-19T08:26:24;32.72;;;4.50;;
62584;SDS011;48643;51.670;5.808;2023-11-19T08:28:51;30.30;;;4.35;;
62584;SDS011;48643;51.670;5.808;2023-11-19T08:31:18;29.80;;;4.53;;
62584;SDS011;48643;51.670;5.808;2023-11-19T08:33:45;30.27;;;4.93;;
62584;SDS011;48643;51.670;5.808;2023-11-19T08:36:16;32.88;;;4.63;;
62584;SDS011;48643;51.670;5.808;2023-11-19T08:38:46;31.83;;;4.75;;
62584;SDS011;48643;51.670;5.808;2023-11-19T08:41:15;30.87;;;4.10;;
62584;SDS011;48643;51.670;5.808;2023-11-19T08:43:44;30.73;;;4.28;;
62584;SDS011;48643;51.670;5.808;2023-11-19T08:46:11;32.85;;;5.03;;
62584;SDS011;48643;51.670;5.808;2023-11-19T08:48:39;30.40;;;4.32;;
62584;SDS011;48643;51.670;5.808;2023-11-19T08:51:06;25.35;;;4.28;;
62584;SDS011;48643;51.670;5.808;2023-11-19T08:53:33;37.47;;;4.63;;
62584;SDS011;48643;51.670;5.808;2023-11-19T08:56:00;29.95;;;4.43;;
62584;SDS011;48643;51.670;5.808;2023-11-19T08:58:29;29.20;;;4.57;;
62584;SDS011;48643;51.670;5.808;2023-11-19T09:00:57;31.23;;;5.05;;
62584;SDS011;48643;51.670;5.808;2023-11-19T09:03:24;33.17;;;4.88;;
62584;SDS011;48643;51.670;5.808;2023-11-19T09:05:56;29.90;;;4.68;;
62584;SDS011;48643;51.670;5.808;2023-11-19T09:08:23;32.97;;;5.28;;
62584;SDS011;48643;51.670;5.808;2023-11-19T09:10:50;33.08;;;4.47;;
62584;SDS011;48643;51.670;5.808;2023-11-19T09:13:17;29.67;;;4.70;;
62584;SDS011;48643;51.670;5.808;2023-11-19T09:15:44;27.50;;;4.50;;
62584;SDS011;48643;51.670;5.808;2023-11-19T09:18:11;34.78;;;4.72;;
62584;SDS011;48643;51.670;5.808;2023-11-19T09:20:38;34.28;;;4.63;;
62584;SDS011;48643;51.670;5.808;2023-11-19T09:23:05;27.67;;;4.75;;
62584;SDS011;48643;51.670;5.808;2023-11-19T09:25:33;27.25;;;4.65;;
62584;SDS011;48643;51.670;5.808;2023-11-19T09:28:03;28.33;;;4.68;;
62584;SDS011;48643;51.670;5.808;2023-11-19T09:30:30;32.40;;;4.45;;
62584;SDS011;48643;51.670;5.808;2023-11-19T09:33:00;33.10;;;5.22;;
62584;SDS011;48643;51.670;5.808;2023-11-19T09:35:27;30.10;;;4.60;;
62584;SDS011;48643;51.670;5.808;2023-11-19T09:37:54;34.35;;;5.13;;
62584;SDS011;48643;51.670;5.808;2023-11-19T09:40:21;33.70;;;4.45;;
62584;SDS011;48643;51.670;5.808;2023-11-19T09:42:48;30.02;;;5.38;;
62584;SDS011;48643;51.670;5.808;2023-11-19T09:45:15;28.20;;;4.30;;
62584;SDS011;48643;51.670;5.808;2023-11-19T09:47:45;28.00;;;4.50;;
62584;SDS011;48643;51.670;5.808;2023-11-19T09:50:19;31.77;;;4.63;;
62584;SDS011;48643;51.670;5.808;2023-11-19T09:52:46;26.63;;;4.53;;
62584;SDS011;48643;51.670;5.808;2023-11-19T09:55:14;31.77;;;5.05;;
62584;SDS011;48643;51.670;5.808;2023-11-19T09:57:41;30.77;;;4.38;;
62584;SDS011;48643;51.670;5.808;2023-11-19T10:00:10;31.25;;;4.68;;
62584;SDS011;48643;51.670;5.808;2023-11-19T10:02:38;34.55;;;4.90;;
62584;SDS011;48643;51.670;5.808;2023-11-19T10:05:06;31.98;;;5.00;;
62584;SDS011;48643;51.670;5.808;2023-11-19T10:07:34;29.73;;;4.47;;
62584;SDS011;48643;51.670;5.808;2023-11-19T10:10:01;28.00;;;4.78;;
62584;SDS011;48643;51.670;5.808;2023-11-19T10:12:31;29.15;;;4.95;;
62584;SDS011;48643;51.670;5.808;2023-11-19T10:14:58;27.02;;;4.57;;
62584;SDS011;48643;51.670;5.808;2023-11-19T10:17:28;31.05;;;4.57;;
62584;SDS011;48643;51.670;5.808;2023-11-19T10:19:58;30.00;;;4.75;;
62584;SDS011;48643;51.670;5.808;2023-11-19T10:22:26;30.33;;;5.30;;
62584;SDS011;48643;51.670;5.808;2023-11-19T10:24:53;29.85;;;4.72;;
62584;SDS011;48643;51.670;5.808;2023-11-19T10:27:23;35.92;;;4.95;;
62584;SDS011;48643;51.670;5.808;2023-11-19T10:29:52;26.60;;;4.85;;
62584;SDS011;48643;51.670;5.808;2023-11-19T10:32:19;35.58;;;4.88;;
62584;SDS011;48643;51.670;5.808;2023-11-19T10:34:56;33.88;;;4.40;;
62584;SDS011;48643;51.670;5.808;2023-11-19T10:37:31;26.52;;;4.53;;
62584;SDS011;48643;51.670;5.808;2023-11-19T10:39:59;32.03;;;5.93;;
62584;SDS011;48643;51.670;5.808;2023-11-19T10:42:26;33.45;;;4.88;;
62584;SDS011;48643;51.670;5.808;2023-11-19T10:44:53;30.95;;;4.45;;
62584;SDS011;48643;51.670;5.808;2023-11-19T10:47:20;27.38;;;4.90;;
62584;SDS011;48643;51.670;5.808;2023-11-19T10:49:52;27.92;;;4.90;;
62584;SDS011;48643;51.670;5.808;2023-11-19T10:52:19;23.27;;;4.53;;
62584;SDS011;48643;51.670;5.808;2023-11-19T10:54:50;36.60;;;4.63;;
62584;SDS011;48643;51.670;5.808;2023-11-19T10:57:20;30.75;;;5.20;;
62584;SDS011;48643;51.670;5.808;2023-11-19T10:59:52;21.13;;;4.53;;
62584;SDS011;48643;51.670;5.808;2023-11-19T11:02:22;31.27;;;4.72;;
62584;SDS011;48643;51.670;5.808;2023-11-19T11:04:51;28.20;;;5.40;;
62584;SDS011;48643;51.670;5.808;2023-11-19T11:07:19;27.27;;;5.05;;
62584;SDS011;48643;51.670;5.808;2023-11-19T11:10:02;29.27;;;4.72;;
62584;SDS011;48643;51.670;5.808;2023-11-19T11:12:33;31.38;;;4.55;;
62584;SDS011;48643;51.670;5.808;2023-11-19T11:15:03;26.55;;;4.80;;
62584;SDS011;48643;51.670;5.808;2023-11-19T11:17:32;27.60;;;4.82;;
62584;SDS011;48643;51.670;5.808;2023-11-19T11:20:00;28.27;;;4.95;;
62584;SDS011;48643;51.670;5.808;2023-11-19T11:22:29;25.80;;;4.80;;
62584;SDS011;48643;51.670;5.808;2023-11-19T11:27:40;31.17;;;4.90;;
62584;SDS011;48643;51.670;5.808;2023-11-19T11:30:35;28.58;;;4.88;;
62584;SDS011;48643;51.670;5.808;2023-11-19T11:33:34;30.10;;;4.80;;
62584;SDS011;48643;51.670;5.808;2023-11-19T11:36:25;29.15;;;4.78;;
62584;SDS011;48643;51.670;5.808;2023-11-19T11:38:52;31.67;;;4.75;;
62584;SDS011;48643;51.670;5.808;2023-11-19T11:41:20;28.00;;;5.43;;
62584;SDS011;48643;51.670;5.808;2023-11-19T11:43:54;28.13;;;4.25;;
62584;SDS011;48643;51.670;5.808;2023-11-19T11:49:00;31.23;;;4.20;;
62584;SDS011;48643;51.670;5.808;2023-11-19T11:54:11;22.08;;;4.28;;
62584;SDS011;48643;51.670;5.808;2023-11-19T11:57:10;28.17;;;4.35;;
62584;SDS011;48643;51.670;5.808;2023-11-19T11:59:50;21.08;;;4.22;;
62584;SDS011;48643;51.670;5.808;2023-11-19T12:02:18;33.60;;;4.72;;
62584;SDS011;48643;51.670;5.808;2023-11-19T12:04:51;26.98;;;4.38;;
62584;SDS011;48643;51.670;5.808;2023-11-19T12:07:23;26.35;;;4.78;;
62584;SDS011;48643;51.670;5.808;2023-11-19T12:10:05;23.33;;;4.75;;
62584;SDS011;48643;51.670;5.808;2023-11-19T12:12:39;23.45;;;4.70;;
62584;SDS011;48643;51.670;5.808;2023-11-19T12:15:09;24.80;;;3.85;;
62584;SDS011;48643;51.670;5.808;2023-11-19T12:17:37;27.75;;;4.07;;
62584;SDS011;48643;51.670;5.808;2023-11-19T12:20:11;24.08;;;3.75;;
62584;SDS011;48643;51.670;5.808;2023-11-19T12:22:38;20.00;;;3.90;;
62584;SDS011;48643;51.670;5.808;2023-11-19T12:25:07;26.20;;;4.30;;
62584;SDS011;48643;51.670;5.808;2023-11-19T12:27:48;24.98;;;4.57;;
62584;SDS011;48643;51.670;5.808;2023-11-19T12:30:23;23.88;;;3.88;;
62584;SDS011;48643;51.670;5.808;2023-11-19T12:32:52;26.17;;;4.35;;
62584;SDS011;48643;51.670;5.808;2023-11-19T12:35:22;18.38;;;4.00;;
62584;SDS011;48643;51.670;5.808;2023-11-19T12:37:51;19.60;;;3.72;;
62584;SDS011;48643;51.670;5.808;2023-11-19T12:40:23;20.05;;;4.30;;
62584;SDS011;48643;51.670;5.808;2023-11-19T12:42:54;19.48;;;4.50;;
62584;SDS011;48643;51.670;5.808;2023-11-19T12:45:21;26.00;;;4.53;;
62584;SDS011;48643;51.670;5.808;2023-11-19T12:48:04;21.25;;;3.97;;
62584;SDS011;48643;51.670;5.808;2023-11-19T12:50:58;20.23;;;4.10;;
62584;SDS011;48643;51.670;5.808;2023-11-19T12:53:28;23.25;;;3.97;;
62584;SDS011;48643;51.670;5.808;2023-11-19T12:55:56;22.73;;;3.75;;
62584;SDS011;48643;51.670;5.808;2023-11-19T12:58:35;19.80;;;3.67;;
62584;SDS011;48643;51.670;5.808;2023-11-19T13:01:06;26.48;;;4.13;;
62584;SDS011;48643;51.670;5.808;2023-11-19T13:03:35;20.88;;;4.07;;
62584;SDS011;48643;51.670;5.808;2023-11-19T13:06:03;21.98;;;4.65;;
62584;SDS011;48643;51.670;5.808;2023-11-19T13:08:35;20.08;;;3.60;;
62584;SDS011;48643;51.670;5.808;2023-11-19T13:11:05;20.00;;;4.20;;
62584;SDS011;48643;51.670;5.808;2023-11-19T13:16:24;22.35;;;4.00;;
62584;SDS011;48643;51.670;5.808;2023-11-19T13:18:52;23.73;;;4.20;;
62584;SDS011;48643;51.670;5.808;2023-11-19T13:21:19;19.23;;;3.80;;
62584;SDS011;48643;51.670;5.808;2023-11-19T13:23:46;14.82;;;3.88;;
62584;SDS011;48643;51.670;5.808;2023-11-19T13:26:13;19.85;;;3.95;;
62584;SDS011;48643;51.670;5.808;2023-11-19T13:28:41;22.88;;;4.05;;
62584;SDS011;48643;51.670;5.808;2023-11-19T13:31:08;20.75;;;3.90;;
62584;SDS011;48643;51.670;5.808;2023-11-19T13:33:35;24.85;;;4.10;;
62584;SDS011;48643;51.670;5.808;2023-11-19T13:36:03;21.55;;;3.80;;
62584;SDS011;48643;51.670;5.808;2023-11-19T13:38:34;19.35;;;3.75;;
62584;SDS011;48643;51.670;5.808;2023-11-19T13:41:02;19.00;;;3.90;;
62584;SDS011;48643;51.670;5.808;2023-11-19T13:43:31;24.03;;;3.97;;
62584;SDS011;48643;51.670;5.808;2023-11-19T13:45:58;18.88;;;4.00;;
62584;SDS011;48643;51.670;5.808;2023-11-19T13:48:25;24.52;;;4.18;;
62584;SDS011;48643;51.670;5.808;2023-11-19T13:50:56;19.10;;;3.90;;
62584;SDS011;48643;51.670;5.808;2023-11-19T13:53:23;16.75;;;3.35;;
62584;SDS011;48643;51.670;5.808;2023-11-19T13:55:50;24.33;;;4.05;;
62584;SDS011;48643;51.670;5.808;2023-11-19T13:58:17;21.35;;;3.80;;
62584;SDS011;48643;51.670;5.808;2023-11-19T14:00:44;25.45;;;4.00;;
62584;SDS011;48643;51.670;5.808;2023-11-19T14:03:11;22.83;;;4.18;;
62584;SDS011;48643;51.670;5.808;2023-11-19T14:05:38;18.55;;;3.70;;
62584;SDS011;48643;51.670;5.808;2023-11-19T14:10:51;21.25;;;3.40;;
62584;SDS011;48643;51.670;5.808;2023-11-19T14:13:18;16.90;;;3.45;;
62584;SDS011;48643;51.670;5.808;2023-11-19T14:15:45;18.55;;;3.95;;
62584;SDS011;48643;51.670;5.808;2023-11-19T14:18:15;18.02;;;3.70;;
62584;SDS011;48643;51.670;5.808;2023-11-19T14:20:43;16.30;;;3.30;;
62584;SDS011;48643;51.670;5.808;2023-11-19T14:23:10;21.52;;;3.67;;
62584;SDS011;48643;51.670;5.808;2023-11-19T14:25:37;16.55;;;3.63;;
62584;SDS011;48643;51.670;5.808;2023-11-19T14:28:04;23.60;;;4.00;;
62584;SDS011;48643;51.670;5.808;2023-11-19T14:30:32;22.02;;;3.58;;
62584;SDS011;48643;51.670;5.808;2023-11-19T14:33:01;22.63;;;3.95;;
62584;SDS011;48643;51.670;5.808;2023-11-19T14:35:29;15.50;;;4.00;;
62584;SDS011;48643;51.670;5.808;2023-11-19T14:37:57;15.32;;;3.53;;
62584;SDS011;48643;51.670;5.808;2023-11-19T14:40:24;21.33;;;3.83;;
62584;SDS011;48643;51.670;5.808;2023-11-19T14:43:08;20.83;;;3.67;;
62584;SDS011;48643;51.670;5.808;2023-11-19T14:45:38;21.92;;;3.38;;
62584;SDS011;48643;51.670;5.808;2023-11-19T14:48:15;20.52;;;4.03;;
62584;SDS011;48643;51.670;5.808;2023-11-19T14:50:44;21.08;;;3.95;;
62584;SDS011;48643;51.670;5.808;2023-11-19T14:53:11;18.80;;;3.75;;
62584;SDS011;48643;51.670;5.808;2023-11-19T14:55:38;21.90;;;4.07;;
62584;SDS011;48643;51.670;5.808;2023-11-19T14:58:06;20.40;;;3.72;;
62584;SDS011;48643;51.670;5.808;2023-11-19T15:00:37;21.85;;;4.03;;
62584;SDS011;48643;51.670;5.808;2023-11-19T15:03:04;17.23;;;3.75;;